sensor_id;sensor_type;location;lat;lon;timestamp;temperature;humidity
13433;DHT22;6789;47.678;9.158;2022-12-01T00:00:58;4.60;99.90
13433;DHT22;6789;47.678;9.158;2022-12-01T00:06:08;4.60;99.90
13433;DHT22;6789;47.678;9.158;2022-12-01T00:11:10;4.60;99.90
13433;DHT22;6789;47.678;9.158;2022-12-01T00:16:09;4.60;99.90
13433;DHT22;6789;47.678;9.158;2022-12-01T00:21:05;4.60;99.90
13433;DHT22;6789;47.678;9.158;2022-12-01T00:26:07;4.60;99.90
13433;DHT22;6789;47.678;9.158;2022-12-01T00:30:58;4.60;99.90
13433;DHT22;6789;47.678;9.158;2022-12-01T00:36:05;4.70;99.90
13433;DHT22;6789;47.678;9.158;2022-12-01T00:41:11;4.60;99.90
13433;DHT22;6789;47.678;9.158;2022-12-01T00:46:12;4.70;99.90
13433;DHT22;6789;47.678;9.158;2022-12-01T00:51:05;4.50;99.90
13433;DHT22;6789;47.678;9.158;2022-12-01T00:55:57;4.50;99.90
13433;DHT22;6789;47.678;9.158;2022-12-01T01:01:03;4.40;99.90
13433;DHT22;6789;47.678;9.158;2022-12-01T01:06:06;4.50;99.90
13433;DHT22;6789;47.678;9.158;2022-12-01T01:11:10;4.40;99.90
13433;DHT22;6789;47.678;9.158;2022-12-01T01:16:03;4.50;99.90
13433;DHT22;6789;47.678;9.158;2022-12-01T01:21:03;4.50;99.90
13433;DHT22;6789;47.678;9.158;2022-12-01T01:26:06;4.50;99.90
13433;DHT22;6789;47.678;9.158;2022-12-01T01:31:09;4.50;99.90
13433;DHT22;6789;47.678;9.158;2022-12-01T01:36:03;4.40;99.90
13433;DHT22;6789;47.678;9.158;2022-12-01T01:40:55;4.40;99.90
13433;DHT22;6789;47.678;9.158;2022-12-01T01:45:47;4.40;99.90
13433;DHT22;6789;47.678;9.158;2022-12-01T01:50:39;4.50;99.90
13433;DHT22;6789;47.678;9.158;2022-12-01T01:55:33;4.50;99.90
13433;DHT22;6789;47.678;9.158;2022-12-01T02:00:26;4.50;99.90
13433;DHT22;6789;47.678;9.158;2022-12-01T02:05:26;4.50;99.90
13433;DHT22;6789;47.678;9.158;2022-12-01T02:10:20;4.50;99.90
13433;DHT22;6789;47.678;9.158;2022-12-01T02:26:35;4.70;99.90
13433;DHT22;6789;47.678;9.158;2022-12-01T02:31:41;4.80;99.90
13433;DHT22;6789;47.678;9.158;2022-12-01T02:36:51;4.80;99.90
13433;DHT22;6789;47.678;9.158;2022-12-01T02:41:51;4.70;99.90
13433;DHT22;6789;47.678;9.158;2022-12-01T02:47:13;4.60;99.90
13433;DHT22;6789;47.678;9.158;2022-12-01T02:52:08;4.60;99.90
13433;DHT22;6789;47.678;9.158;2022-12-01T02:57:03;4.60;99.90
13433;DHT22;6789;47.678;9.158;2022-12-01T03:02:23;4.40;99.90
13433;DHT22;6789;47.678;9.158;2022-12-01T03:17:58;4.40;99.90
13433;DHT22;6789;47.678;9.158;2022-12-01T03:23:07;4.50;99.90
13433;DHT22;6789;47.678;9.158;2022-12-01T03:28:03;4.50;99.90
13433;DHT22;6789;47.678;9.158;2022-12-01T03:33:23;4.50;99.90
13433;DHT22;6789;47.678;9.158;2022-12-01T03:38:24;4.40;99.90
13433;DHT22;6789;47.678;9.158;2022-12-01T03:43:21;4.30;99.90
13433;DHT22;6789;47.678;9.158;2022-12-01T03:48:18;4.30;99.90
13433;DHT22;6789;47.678;9.158;2022-12-01T03:53:23;4.40;99.90
13433;DHT22;6789;47.678;9.158;2022-12-01T03:58:26;4.50;99.90
13433;DHT22;6789;47.678;9.158;2022-12-01T04:03:25;4.50;99.90
13433;DHT22;6789;47.678;9.158;2022-12-01T04:08:17;4.60;99.90
13433;DHT22;6789;47.678;9.158;2022-12-01T04:13:09;4.50;99.90
13433;DHT22;6789;47.678;9.158;2022-12-01T04:18:13;4.40;99.90
13433;DHT22;6789;47.678;9.158;2022-12-01T04:23:04;4.40;99.90
13433;DHT22;6789;47.678;9.158;2022-12-01T04:27:56;4.40;99.90
13433;DHT22;6789;47.678;9.158;2022-12-01T04:32:48;4.40;99.90
13433;DHT22;6789;47.678;9.158;2022-12-01T04:37:39;4.40;99.90
13433;DHT22;6789;47.678;9.158;2022-12-01T04:42:31;4.50;99.90
13433;DHT22;6789;47.678;9.158;2022-12-01T04:47:23;4.50;99.90
13433;DHT22;6789;47.678;9.158;2022-12-01T04:52:15;4.50;99.90
13433;DHT22;6789;47.678;9.158;2022-12-01T04:57:06;4.50;99.90
13433;DHT22;6789;47.678;9.158;2022-12-01T05:01:58;4.50;99.90
13433;DHT22;6789;47.678;9.158;2022-12-01T05:06:53;4.50;99.90
13433;DHT22;6789;47.678;9.158;2022-12-01T05:11:46;4.60;99.90
13433;DHT22;6789;47.678;9.158;2022-12-01T05:16:38;4.60;99.90
13433;DHT22;6789;47.678;9.158;2022-12-01T05:21:30;4.50;99.90
13433;DHT22;6789;47.678;9.158;2022-12-01T05:26:22;4.40;99.90
13433;DHT22;6789;47.678;9.158;2022-12-01T05:31:13;4.30;99.90
13433;DHT22;6789;47.678;9.158;2022-12-01T05:36:10;4.30;99.90
13433;DHT22;6789;47.678;9.158;2022-12-01T05:41:02;4.60;99.90
13433;DHT22;6789;47.678;9.158;2022-12-01T05:46:08;4.60;99.90
13433;DHT22;6789;47.678;9.158;2022-12-01T05:51:10;4.40;99.90
13433;DHT22;6789;47.678;9.158;2022-12-01T05:56:06;4.30;99.90
13433;DHT22;6789;47.678;9.158;2022-12-01T06:01:12;4.40;99.90
13433;DHT22;6789;47.678;9.158;2022-12-01T06:06:05;4.50;99.90
13433;DHT22;6789;47.678;9.158;2022-12-01T06:11:01;4.40;99.90
13433;DHT22;6789;47.678;9.158;2022-12-01T06:15:58;4.30;99.90
13433;DHT22;6789;47.678;9.158;2022-12-01T06:20:51;4.30;99.90
13433;DHT22;6789;47.678;9.158;2022-12-01T06:25:43;4.30;99.90
13433;DHT22;6789;47.678;9.158;2022-12-01T06:30:35;4.40;99.90
13433;DHT22;6789;47.678;9.158;2022-12-01T06:35:31;4.40;99.90
13433;DHT22;6789;47.678;9.158;2022-12-01T06:40:25;4.50;99.90
13433;DHT22;6789;47.678;9.158;2022-12-01T06:45:17;4.40;99.90
13433;DHT22;6789;47.678;9.158;2022-12-01T06:50:10;4.30;99.90
13433;DHT22;6789;47.678;9.158;2022-12-01T06:55:04;4.30;99.90
13433;DHT22;6789;47.678;9.158;2022-12-01T06:59:58;4.40;99.90
13433;DHT22;6789;47.678;9.158;2022-12-01T07:04:51;4.30;99.90
13433;DHT22;6789;47.678;9.158;2022-12-01T07:09:44;4.30;99.90
13433;DHT22;6789;47.678;9.158;2022-12-01T07:14:37;4.30;99.90
13433;DHT22;6789;47.678;9.158;2022-12-01T07:19:29;4.50;99.90
13433;DHT22;6789;47.678;9.158;2022-12-01T07:24:22;4.50;99.90
13433;DHT22;6789;47.678;9.158;2022-12-01T07:29:14;4.30;99.90
13433;DHT22;6789;47.678;9.158;2022-12-01T07:34:06;4.30;99.90
13433;DHT22;6789;47.678;9.158;2022-12-01T07:38:59;4.20;99.90
13433;DHT22;6789;47.678;9.158;2022-12-01T07:43:54;4.20;99.90
13433;DHT22;6789;47.678;9.158;2022-12-01T07:49:00;4.20;99.90
13433;DHT22;6789;47.678;9.158;2022-12-01T07:54:01;4.20;99.90
13433;DHT22;6789;47.678;9.158;2022-12-01T07:58:56;4.40;99.90
13433;DHT22;6789;47.678;9.158;2022-12-01T08:04:03;4.20;99.90
13433;DHT22;6789;47.678;9.158;2022-12-01T08:08:56;4.30;99.90
13433;DHT22;6789;47.678;9.158;2022-12-01T08:13:50;4.40;99.90
13433;DHT22;6789;47.678;9.158;2022-12-01T08:18:44;4.30;99.90
13433;DHT22;6789;47.678;9.158;2022-12-01T08:23:37;4.40;99.90
13433;DHT22;6789;47.678;9.158;2022-12-01T08:28:36;4.50;99.90
13433;DHT22;6789;47.678;9.158;2022-12-01T08:33:48;4.40;99.90
13433;DHT22;6789;47.678;9.158;2022-12-01T08:38:47;4.40;99.90
13433;DHT22;6789;47.678;9.158;2022-12-01T08:43:48;4.50;99.90
13433;DHT22;6789;47.678;9.158;2022-12-01T08:48:51;4.50;99.90
13433;DHT22;6789;47.678;9.158;2022-12-01T08:53:47;4.60;99.90
13433;DHT22;6789;47.678;9.158;2022-12-01T08:58:54;4.70;99.90
13433;DHT22;6789;47.678;9.158;2022-12-01T09:03:46;4.50;99.90
13433;DHT22;6789;47.678;9.158;2022-12-01T09:08:40;4.60;99.90
13433;DHT22;6789;47.678;9.158;2022-12-01T09:13:43;4.60;99.90
13433;DHT22;6789;47.678;9.158;2022-12-01T09:18:50;4.60;99.90
13433;DHT22;6789;47.678;9.158;2022-12-01T09:23:56;4.60;99.90
13433;DHT22;6789;47.678;9.158;2022-12-01T09:29:05;4.60;99.90
13433;DHT22;6789;47.678;9.158;2022-12-01T09:34:15;4.80;99.90
13433;DHT22;6789;47.678;9.158;2022-12-01T09:39:15;4.90;99.90
13433;DHT22;6789;47.678;9.158;2022-12-01T09:54:48;4.70;99.90
13433;DHT22;6789;47.678;9.158;2022-12-01T09:59:56;4.90;99.90
13433;DHT22;6789;47.678;9.158;2022-12-01T10:05:11;5.00;99.90
13433;DHT22;6789;47.678;9.158;2022-12-01T10:10:17;4.90;99.90
13433;DHT22;6789;47.678;9.158;2022-12-01T10:15:35;5.00;99.90
13433;DHT22;6789;47.678;9.158;2022-12-01T10:32:17;5.00;99.90
13433;DHT22;6789;47.678;9.158;2022-12-01T10:37:21;5.00;99.90
13433;DHT22;6789;47.678;9.158;2022-12-01T10:42:35;4.90;99.90
13433;DHT22;6789;47.678;9.158;2022-12-01T10:47:32;4.90;99.90
13433;DHT22;6789;47.678;9.158;2022-12-01T10:52:39;4.80;99.90
13433;DHT22;6789;47.678;9.158;2022-12-01T10:57:37;4.80;99.90
13433;DHT22;6789;47.678;9.158;2022-12-01T11:02:43;4.90;99.90
13433;DHT22;6789;47.678;9.158;2022-12-01T11:07:51;5.10;99.90
13433;DHT22;6789;47.678;9.158;2022-12-01T11:12:53;5.20;99.90
13433;DHT22;6789;47.678;9.158;2022-12-01T11:18:36;5.40;99.90
13433;DHT22;6789;47.678;9.158;2022-12-01T11:23:47;5.30;99.90
13433;DHT22;6789;47.678;9.158;2022-12-01T11:29:02;5.40;99.90
13433;DHT22;6789;47.678;9.158;2022-12-01T11:39:32;5.50;99.90
13433;DHT22;6789;47.678;9.158;2022-12-01T11:44:54;5.50;99.90
13433;DHT22;6789;47.678;9.158;2022-12-01T11:50:23;5.20;99.90
13433;DHT22;6789;47.678;9.158;2022-12-01T11:55:22;5.30;99.90
13433;DHT22;6789;47.678;9.158;2022-12-01T12:00:42;5.20;99.90
13433;DHT22;6789;47.678;9.158;2022-12-01T12:11:18;5.50;99.90
13433;DHT22;6789;47.678;9.158;2022-12-01T12:16:51;5.50;99.90
13433;DHT22;6789;47.678;9.158;2022-12-01T12:33:35;5.40;99.90
13433;DHT22;6789;47.678;9.158;2022-12-01T12:50:14;5.40;99.90
13433;DHT22;6789;47.678;9.158;2022-12-01T12:55:37;5.40;99.90
13433;DHT22;6789;47.678;9.158;2022-12-01T13:06:35;5.50;99.90
13433;DHT22;6789;47.678;9.158;2022-12-01T13:11:49;5.60;99.90
13433;DHT22;6789;47.678;9.158;2022-12-01T13:17:10;5.50;99.90
13433;DHT22;6789;47.678;9.158;2022-12-01T13:22:15;5.40;99.90
13433;DHT22;6789;47.678;9.158;2022-12-01T13:27:21;5.40;99.90
13433;DHT22;6789;47.678;9.158;2022-12-01T13:37:44;5.50;99.90
13433;DHT22;6789;47.678;9.158;2022-12-01T13:48:01;5.40;99.90
13433;DHT22;6789;47.678;9.158;2022-12-01T13:53:10;5.60;99.90
13433;DHT22;6789;47.678;9.158;2022-12-01T13:58:46;5.60;99.90
13433;DHT22;6789;47.678;9.158;2022-12-01T14:03:54;5.80;99.90
13433;DHT22;6789;47.678;9.158;2022-12-01T14:09:38;5.60;99.90
13433;DHT22;6789;47.678;9.158;2022-12-01T14:14:40;5.60;99.90
13433;DHT22;6789;47.678;9.158;2022-12-01T14:19:47;5.50;99.90
13433;DHT22;6789;47.678;9.158;2022-12-01T14:24:58;5.60;99.90
13433;DHT22;6789;47.678;9.158;2022-12-01T14:35:44;5.40;99.90
13433;DHT22;6789;47.678;9.158;2022-12-01T14:40:51;5.40;99.90
13433;DHT22;6789;47.678;9.158;2022-12-01T14:46:05;5.40;99.90
13433;DHT22;6789;47.678;9.158;2022-12-01T14:51:21;5.40;99.90
13433;DHT22;6789;47.678;9.158;2022-12-01T14:56:51;5.40;99.90
13433;DHT22;6789;47.678;9.158;2022-12-01T15:02:05;5.30;99.90
13433;DHT22;6789;47.678;9.158;2022-12-01T15:07:20;5.30;99.90
13433;DHT22;6789;47.678;9.158;2022-12-01T15:12:30;5.20;99.90
13433;DHT22;6789;47.678;9.158;2022-12-01T15:17:36;5.20;99.90
13433;DHT22;6789;47.678;9.158;2022-12-01T15:22:42;5.30;99.90
13433;DHT22;6789;47.678;9.158;2022-12-01T15:28:14;5.20;99.90
13433;DHT22;6789;47.678;9.158;2022-12-01T15:33:31;5.20;99.90
13433;DHT22;6789;47.678;9.158;2022-12-01T15:38:33;5.20;99.90
13433;DHT22;6789;47.678;9.158;2022-12-01T15:43:42;5.30;99.90
13433;DHT22;6789;47.678;9.158;2022-12-01T15:49:05;5.20;99.90
13433;DHT22;6789;47.678;9.158;2022-12-01T15:54:25;5.10;99.90
13433;DHT22;6789;47.678;9.158;2022-12-01T15:59:44;5.10;99.90
13433;DHT22;6789;47.678;9.158;2022-12-01T16:05:02;5.10;99.90
13433;DHT22;6789;47.678;9.158;2022-12-01T16:10:32;5.00;99.90
13433;DHT22;6789;47.678;9.158;2022-12-01T16:15:42;5.00;99.90
13433;DHT22;6789;47.678;9.158;2022-12-01T16:20:49;5.00;99.90
13433;DHT22;6789;47.678;9.158;2022-12-01T16:25:55;5.10;99.90
13433;DHT22;6789;47.678;9.158;2022-12-01T16:31:03;5.20;99.90
13433;DHT22;6789;47.678;9.158;2022-12-01T16:36:12;5.10;99.90
13433;DHT22;6789;47.678;9.158;2022-12-01T16:41:30;5.10;99.90
13433;DHT22;6789;47.678;9.158;2022-12-01T16:46:40;5.10;99.90
13433;DHT22;6789;47.678;9.158;2022-12-01T16:51:40;5.10;99.90
13433;DHT22;6789;47.678;9.158;2022-12-01T16:56:47;5.00;99.90
13433;DHT22;6789;47.678;9.158;2022-12-01T17:01:58;5.00;99.90
13433;DHT22;6789;47.678;9.158;2022-12-01T17:07:15;5.00;99.90
13433;DHT22;6789;47.678;9.158;2022-12-01T17:12:25;5.10;99.90
13433;DHT22;6789;47.678;9.158;2022-12-01T17:17:31;5.20;99.90
13433;DHT22;6789;47.678;9.158;2022-12-01T17:22:38;5.30;99.90
13433;DHT22;6789;47.678;9.158;2022-12-01T17:27:47;5.30;99.90
13433;DHT22;6789;47.678;9.158;2022-12-01T17:32:56;5.30;99.90
13433;DHT22;6789;47.678;9.158;2022-12-01T17:38:03;5.20;99.90
13433;DHT22;6789;47.678;9.158;2022-12-01T17:43:09;5.20;99.90
13433;DHT22;6789;47.678;9.158;2022-12-01T17:48:15;5.30;99.90
13433;DHT22;6789;47.678;9.158;2022-12-01T17:53:09;5.30;99.90
13433;DHT22;6789;47.678;9.158;2022-12-01T17:58:15;5.40;99.90
13433;DHT22;6789;47.678;9.158;2022-12-01T18:03:25;5.30;99.90
13433;DHT22;6789;47.678;9.158;2022-12-01T18:08:34;5.40;99.90
13433;DHT22;6789;47.678;9.158;2022-12-01T18:13:46;5.20;99.90
13433;DHT22;6789;47.678;9.158;2022-12-01T18:18:56;5.10;99.90
13433;DHT22;6789;47.678;9.158;2022-12-01T18:24:05;5.30;99.90
13433;DHT22;6789;47.678;9.158;2022-12-01T18:29:16;5.20;99.90
13433;DHT22;6789;47.678;9.158;2022-12-01T18:34:18;5.20;99.90
13433;DHT22;6789;47.678;9.158;2022-12-01T18:39:15;5.10;99.90
13433;DHT22;6789;47.678;9.158;2022-12-01T18:44:21;5.20;99.90
13433;DHT22;6789;47.678;9.158;2022-12-01T18:49:27;5.00;99.90
13433;DHT22;6789;47.678;9.158;2022-12-01T18:54:33;5.10;99.90
13433;DHT22;6789;47.678;9.158;2022-12-01T18:59:28;5.10;99.90
13433;DHT22;6789;47.678;9.158;2022-12-01T19:04:35;5.20;99.90
13433;DHT22;6789;47.678;9.158;2022-12-01T19:09:41;5.10;99.90
13433;DHT22;6789;47.678;9.158;2022-12-01T19:14:47;4.90;99.90
13433;DHT22;6789;47.678;9.158;2022-12-01T19:19:52;4.80;99.90
13433;DHT22;6789;47.678;9.158;2022-12-01T19:24:58;4.80;99.90
13433;DHT22;6789;47.678;9.158;2022-12-01T19:30:05;4.80;99.90
13433;DHT22;6789;47.678;9.158;2022-12-01T19:35:11;4.70;99.90
13433;DHT22;6789;47.678;9.158;2022-12-01T19:40:17;4.80;99.90
13433;DHT22;6789;47.678;9.158;2022-12-01T19:45:23;4.80;99.90
13433;DHT22;6789;47.678;9.158;2022-12-01T19:50:33;4.90;99.90
13433;DHT22;6789;47.678;9.158;2022-12-01T19:55:40;4.70;99.90
13433;DHT22;6789;47.678;9.158;2022-12-01T20:00:32;4.70;99.90
13433;DHT22;6789;47.678;9.158;2022-12-01T20:05:38;4.60;99.90
13433;DHT22;6789;47.678;9.158;2022-12-01T20:10:48;4.60;99.90
13433;DHT22;6789;47.678;9.158;2022-12-01T20:15:47;4.60;99.90
13433;DHT22;6789;47.678;9.158;2022-12-01T20:21:08;4.70;99.90
13433;DHT22;6789;47.678;9.158;2022-12-01T20:26:21;4.70;99.90
13433;DHT22;6789;47.678;9.158;2022-12-01T20:31:29;4.90;99.90
13433;DHT22;6789;47.678;9.158;2022-12-01T20:36:37;4.90;99.90
13433;DHT22;6789;47.678;9.158;2022-12-01T20:41:44;4.90;99.90
13433;DHT22;6789;47.678;9.158;2022-12-01T20:46:44;5.00;99.90
13433;DHT22;6789;47.678;9.158;2022-12-01T20:51:51;4.90;99.90
13433;DHT22;6789;47.678;9.158;2022-12-01T20:56:44;4.80;99.90
13433;DHT22;6789;47.678;9.158;2022-12-01T21:01:39;4.80;99.90
13433;DHT22;6789;47.678;9.158;2022-12-01T21:07:45;5.00;99.90
13433;DHT22;6789;47.678;9.158;2022-12-01T21:12:53;5.00;99.90
13433;DHT22;6789;47.678;9.158;2022-12-01T21:18:22;5.00;99.90
13433;DHT22;6789;47.678;9.158;2022-12-01T21:24:35;4.90;99.90
13433;DHT22;6789;47.678;9.158;2022-12-01T21:30:20;4.90;99.90
13433;DHT22;6789;47.678;9.158;2022-12-01T21:35:22;4.90;99.90
13433;DHT22;6789;47.678;9.158;2022-12-01T21:40:22;5.00;99.90
13433;DHT22;6789;47.678;9.158;2022-12-01T21:45:30;4.90;99.90
13433;DHT22;6789;47.678;9.158;2022-12-01T21:50:26;5.00;99.90
13433;DHT22;6789;47.678;9.158;2022-12-01T22:00:31;5.00;99.90
13433;DHT22;6789;47.678;9.158;2022-12-01T22:05:36;5.10;99.90
13433;DHT22;6789;47.678;9.158;2022-12-01T22:16:01;5.00;99.90
13433;DHT22;6789;47.678;9.158;2022-12-01T22:26:24;5.00;99.90
13433;DHT22;6789;47.678;9.158;2022-12-01T22:31:19;5.00;99.90
13433;DHT22;6789;47.678;9.158;2022-12-01T22:36:30;5.10;99.90
13433;DHT22;6789;47.678;9.158;2022-12-01T22:41:25;5.10;99.90
13433;DHT22;6789;47.678;9.158;2022-12-01T22:51:42;4.90;99.90
13433;DHT22;6789;47.678;9.158;2022-12-01T22:56:45;4.80;99.90
13433;DHT22;6789;47.678;9.158;2022-12-01T23:02:10;4.80;99.90
13433;DHT22;6789;47.678;9.158;2022-12-01T23:07:39;4.80;99.90
13433;DHT22;6789;47.678;9.158;2022-12-01T23:12:48;5.00;99.90
13433;DHT22;6789;47.678;9.158;2022-12-01T23:17:58;5.00;99.90
13433;DHT22;6789;47.678;9.158;2022-12-01T23:23:16;4.90;99.90
13433;DHT22;6789;47.678;9.158;2022-12-01T23:28:24;4.80;99.90
13433;DHT22;6789;47.678;9.158;2022-12-01T23:38:35;4.80;99.90
13433;DHT22;6789;47.678;9.158;2022-12-01T23:43:40;4.70;99.90
13433;DHT22;6789;47.678;9.158;2022-12-01T23:48:50;4.80;99.90
13433;DHT22;6789;47.678;9.158;2022-12-01T23:53:52;4.70;99.90
13433;DHT22;6789;47.678;9.158;2022-12-01T23:58:48;4.70;99.90
